This is the latest recevied weather packets stored in our database for station/object K7NDG. If no packets are shown the sender has not sent any weather packets the latest 1 day(s).
| Time | Temp. | Humidity | Pressure | Rain* | Wind** | Luminosity | Snow |
|---|---|---|---|---|---|---|---|
| 1778036160 | 13.89° C | 75% | 1016.9 hPa | 0 mm | 0.89 m/s, 282° | 16 W/m² | - |
| 1778035856 | 14.44° C | 75% | 1016.9 hPa | 0 mm | 0.89 m/s, 287° | 18 W/m² | - |
| 1778035554 | 14.44° C | 75% | 1016.8 hPa | 0 mm | 0.89 m/s, 274° | 22 W/m² | - |
| 1778035250 | 14.44° C | 75% | 1016.7 hPa | 0 mm | 0.45 m/s, 274° | 26 W/m² | - |
| 1778034946 | 14.44° C | 74% | 1016.6 hPa | 0 mm | 0 m/s | 29 W/m² | - |
| 1778034643 | 14.44° C | 75% | 1016.7 hPa | 0 mm | 0 m/s | 33 W/m² | - |
| 1778034340 | 14.44° C | 75% | 1016.6 hPa | 0 mm | 0 m/s | 33 W/m² | - |
| 1778034033 | 14.44° C | 75% | 1016.8 hPa | 0 mm | 0 m/s | 39 W/m² | - |
| 1778033730 | 14.44° C | 74% | 1017 hPa | 0 mm | 0 m/s | 44 W/m² | - |
| 1778033427 | 14.44° C | 74% | 1016.6 hPa | 0 mm | 0.89 m/s, 252° | 48 W/m² | - |
| 1778033124 | 15° C | 74% | 1016.7 hPa | 0 mm | 0.45 m/s, 258° | 45 W/m² | - |
| 1778032822 | 15° C | 74% | 1016.7 hPa | 0 mm | 0 m/s | 43 W/m² | - |
| 1778032519 | 15° C | 73% | 1016.9 hPa | 0 mm | 0.89 m/s, 267° | 48 W/m² | - |
| 1778032216 | 15° C | 73% | 1016.8 hPa | 0 mm | 0.89 m/s, 251° | 55 W/m² | - |
| 1778031913 | 15.56° C | 73% | 1016.9 hPa | 0 mm | 0 m/s | 78 W/m² | - |
| 1778031609 | 15.56° C | 73% | 1016.7 hPa | 0 mm | 0 m/s | 72 W/m² | - |
| 1778031307 | 15.56° C | 72% | 1016.4 hPa | 0 mm | 1.34 m/s, 84° | 65 W/m² | - |
| 1778031003 | 16.11° C | 71% | 1016.5 hPa | 0 mm | 0.45 m/s, 246° | 73 W/m² | - |
| 1778030699 | 16.11° C | 71% | 1016.7 hPa | 0 mm | 0.89 m/s, 269° | 82 W/m² | - |
| 1778030397 | 16.67° C | 70% | 1016.7 hPa | 0 mm | 0.89 m/s, 250° | 89 W/m² | - |
| 1778030094 | 16.67° C | 71% | 1016.5 hPa | 0 mm | 1.34 m/s, 253° | 88 W/m² | - |
| 1778029790 | 16.67° C | 70% | 1016.6 hPa | 0 mm | 0 m/s | 114 W/m² | - |
| 1778029490 | 16.67° C | 70% | 1016.4 hPa | 0 mm | 0 m/s | 120 W/m² | - |
| 1778029185 | 16.67° C | 70% | 1016.6 hPa | 0 mm | 1.34 m/s, 249° | 99 W/m² | - |
| 1778028883 | 16.67° C | 69% | 1016.5 hPa | 0 mm | 0 m/s | 115 W/m² | - |
* Rain latest hour (hover to see other rain measurements)
** Current wind speed in m/s (hover to see current wind gust speed)